Time;durP1;ratioP1;P1;durP2;ratioP2;P2;SDS_P1;SDS_P2;PMS_P1;PMS_P2;Temp;Humidity;BMP_temperature;BMP_pressure;BME280_temperature;BME280_humidity;BME280_pressure;Samples;Min_cycle;Max_cycle;Signal;HPM_P1;HPM_P2
2022/08/14 00:01:04;;;;;;;;;;;;;;;;;;5056555;28;20225;-79
2022/08/14 00:03:30;;;;;;;;;;;;;;;;;;5076417;28;19924;-78
2022/08/14 00:05:55;;;;;;;;;;;;;;;;;;5059967;28;20378;-79
2022/08/14 00:08:20;;;;;;;;;;;;;;;;;;5062281;28;20630;-79
2022/08/14 00:10:45;;;;;;;;;;;;;;;;;;5071854;28;20445;-79
2022/08/14 00:13:10;;;;;;;;;;;;;;;;;;5058369;28;19928;-79
2022/08/14 00:15:35;;;;;;;;;;;;;;;;;;5068202;28;20336;-79
2022/08/14 00:18:00;;;;;;;;;;;;;;;;;;5053795;28;20368;-79
2022/08/14 00:20:26;;;;;;;;;;;;;;;;;;5069947;28;19916;-80
2022/08/14 00:22:51;;;;;;;;;;;;;;;;;;5068776;28;19920;-79
2022/08/14 00:25:16;;;;;;;;;;;;;;;;;;5067553;28;19916;-79
2022/08/14 00:27:41;;;;;;;;;;;;;;;;;;5055025;28;19913;-78
2022/08/14 00:30:07;;;;;;;;;;;;;;;;;;5058642;28;19944;-78
2022/08/14 00:32:32;;;;;;;;;;;;;;;;;;5070953;28;19913;-79
2022/08/14 00:35:00;;;;;;;;;;;;;;;;;;5059760;28;20318;-78
2022/08/14 00:37:25;;;;;;;;;;;;;;;;;;5064172;28;19913;-79
2022/08/14 00:39:50;;;;;;;;;;;;;;;;;;5069607;28;20359;-79
2022/08/14 00:42:15;;;;;;;;;;;;;;;;;;5075626;28;19912;-78
2022/08/14 00:44:40;;;;;;;;;;;;;;;;;;5060707;28;19950;-78
2022/08/14 00:47:08;;;;;;;;;;;;;;;;;;5058283;28;19912;-78
2022/08/14 00:49:33;;;;;;;;;;;;;;;;;;5038037;28;19963;-78
2022/08/14 00:51:59;;;;;;;;;;;;;;;;;;5065012;28;20050;-78
2022/08/14 00:54:24;;;;;;;;;;;;;;;;;;5062023;28;19928;-79
2022/08/14 00:56:49;;;;;;;;;;;;;;;;;;5074509;28;19913;-78
2022/08/14 00:59:14;;;;;;;;;;;;;;;;;;5060445;28;19916;-79
2022/08/14 01:01:39;;;;;;;;;;;;;;;;;;5069601;28;20007;-78
2022/08/14 01:04:04;;;;;;;;;;;;;;;;;;5064298;28;19923;-79
2022/08/14 01:06:31;;;;;;;;;;;;;;;;;;5053061;28;20078;-79
2022/08/14 01:08:57;;;;;;;;;;;;;;;;;;5047297;28;20518;-78
2022/08/14 01:11:22;;;;;;;;;;;;;;;;;;5056803;28;19948;-77
2022/08/14 01:13:49;;;;;;;;;;;;;;;;;;5064120;28;19927;-77
2022/08/14 01:16:14;;;;;;;;;;;;;;;;;;5076025;28;20294;-77
2022/08/14 01:21:23;;;;;;;;;;;;;;;;;;5069136;28;19987;-78
2022/08/14 01:23:49;;;;;;;;;;;;;;;;;;5056962;28;20398;-78
2022/08/14 01:26:14;;;;;;;;;;;;;;;;;;5061779;28;20390;-78
2022/08/14 01:28:40;;;;;;;;;;;;;;;;;;5049044;28;20019;-78
2022/08/14 01:31:07;;;;;;;;;;;;;;;;;;5055971;28;19956;-78
2022/08/14 01:33:32;;;;;;;;;;;;;;;;;;5069668;28;20375;-78
2022/08/14 01:35:59;;;;;;;;;;;;;;;;;;5059950;28;20397;-78
2022/08/14 01:38:25;;;;;;;;;;;;;;;;;;5050808;28;19980;-79
2022/08/14 01:40:50;;;;;;;;;;;;;;;;;;5065048;28;19939;-79
2022/08/14 01:43:16;;;;;;;;;;;;;;;;;;5060473;28;19970;-79
2022/08/14 01:45:41;;;;;;;;;;;;;;;;;;5041390;28;19979;-79
2022/08/14 01:48:06;;;;;;;;;;;;;;;;;;5056402;28;19940;-79
2022/08/14 01:50:32;;;;;;;;;;;;;;;;;;5069560;28;19935;-79
2022/08/14 01:52:57;;;;;;;;;;;;;;;;;;5062844;28;19913;-78
2022/08/14 01:55:22;;;;;;;;;;;;;;;;;;5065917;28;20008;-79
2022/08/14 01:57:47;;;;;;;;;;;;;;;;;;5069905;28;20395;-79
2022/08/14 02:00:15;;;;;;;;;;;;;;;;;;5079361;28;19923;-78
2022/08/14 02:02:41;;;;;;;;;;;;;;;;;;5074230;28;19919;-78
2022/08/14 02:05:06;;;;;;;;;;;;;;;;;;5050128;28;20023;-78
2022/08/14 02:07:31;;;;;;;;;;;;;;;;;;5050508;28;20347;-77
2022/08/14 02:09:56;;;;;;;;;;;;;;;;;;5052248;28;19908;-78
2022/08/14 02:12:23;;;;;;;;;;;;;;;;;;5058623;28;20407;-78
2022/08/14 02:14:49;;;;;;;;;;;;;;;;;;5068097;28;20415;-78
2022/08/14 02:17:14;;;;;;;;;;;;;;;;;;5061985;28;19923;-77
2022/08/14 02:19:39;;;;;;;;;;;;;;;;;;5073019;28;19917;-78
2022/08/14 02:22:05;;;;;;;;;;;;;;;;;;5052460;28;19916;-78
2022/08/14 02:24:30;;;;;;;;;;;;;;;;;;5026316;28;19943;-78
2022/08/14 02:26:56;;;;;;;;;;;;;;;;;;5051671;28;19935;-78
2022/08/14 02:29:22;;;;;;;;;;;;;;;;;;5047367;28;19909;-78
2022/08/14 02:31:48;;;;;;;;;;;;;;;;;;5066456;28;19920;-77
2022/08/14 02:34:13;;;;;;;;;;;;;;;;;;5071019;28;19932;-78
2022/08/14 02:36:39;;;;;;;;;;;;;;;;;;5043051;28;20363;-78
2022/08/14 02:39:04;;;;;;;;;;;;;;;;;;5050911;28;19917;-78
2022/08/14 02:41:31;;;;;;;;;;;;;;;;;;5055776;28;19968;-79
2022/08/14 02:43:56;;;;;;;;;;;;;;;;;;5041936;28;19909;-78
2022/08/14 02:46:21;;;;;;;;;;;;;;;;;;5060662;28;20209;-78
2022/08/14 02:48:46;;;;;;;;;;;;;;;;;;5052341;28;19909;-78
2022/08/14 02:51:11;;;;;;;;;;;;;;;;;;5043288;28;19917;-78
2022/08/14 02:53:38;;;;;;;;;;;;;;;;;;5062401;28;19913;-78
2022/08/14 02:56:03;;;;;;;;;;;;;;;;;;5059348;28;19913;-78
2022/08/14 02:58:28;;;;;;;;;;;;;;;;;;5049953;28;19920;-77
2022/08/14 03:00:54;;;;;;;;;;;;;;;;;;5040842;28;20022;-78
2022/08/14 03:03:22;;;;;;;;;;;;;;;;;;5063210;28;19913;-78
2022/08/14 03:05:50;;;;;;;;;;;;;;;;;;5059283;28;19920;-79
2022/08/14 03:08:15;;;;;;;;;;;;;;;;;;5075302;28;20624;-78
2022/08/14 03:10:40;;;;;;;;;;;;;;;;;;5067496;28;19916;-78
2022/08/14 03:13:05;;;;;;;;;;;;;;;;;;5067676;28;19912;-78
2022/08/14 03:15:32;;;;;;;;;;;;;;;;;;5073190;28;19958;-78
2022/08/14 03:17:57;;;;;;;;;;;;;;;;;;5044494;28;19916;-78
2022/08/14 03:20:22;;;;;;;;;;;;;;;;;;5056023;28;19924;-78
2022/08/14 03:22:47;;;;;;;;;;;;;;;;;;5064935;28;20291;-78
2022/08/14 03:25:12;;;;;;;;;;;;;;;;;;5067712;28;20436;-77
2022/08/14 03:27:37;;;;;;;;;;;;;;;;;;5064506;28;20387;-78
2022/08/14 03:30:03;;;;;;;;;;;;;;;;;;5058770;28;19908;-78
2022/08/14 03:32:29;;;;;;;;;;;;;;;;;;5070240;28;19940;-78
2022/08/14 03:34:55;;;;;;;;;;;;;;;;;;5072323;28;19916;-78
2022/08/14 03:37:20;;;;;;;;;;;;;;;;;;5085980;28;19973;-78
2022/08/14 03:39:45;;;;;;;;;;;;;;;;;;5052372;28;20027;-78
2022/08/14 03:42:12;;;;;;;;;;;;;;;;;;5065228;28;19934;-78
2022/08/14 03:44:38;;;;;;;;;;;;;;;;;;5082380;28;19923;-78
2022/08/14 03:47:03;;;;;;;;;;;;;;;;;;5089883;28;19911;-78
2022/08/14 03:49:29;;;;;;;;;;;;;;;;;;5066166;28;19908;-77
2022/08/14 03:51:54;;;;;;;;;;;;;;;;;;5060990;28;19919;-78
2022/08/14 03:54:19;;;;;;;;;;;;;;;;;;5074141;28;19913;-78
2022/08/14 03:56:44;;;;;;;;;;;;;;;;;;5084070;28;19912;-78
2022/08/14 03:59:10;;;;;;;;;;;;;;;;;;5045110;28;19913;-78
2022/08/14 04:01:35;;;;;;;;;;;;;;;;;;5070534;28;19930;-77
2022/08/14 04:04:05;;;;;;;;;;;;;;;;;;5083667;28;19958;-78
2022/08/14 04:06:30;;;;;;;;;;;;;;;;;;5090502;28;20007;-78
2022/08/14 04:08:55;;;;;;;;;;;;;;;;;;5067716;28;20004;-78
2022/08/14 04:11:20;;;;;;;;;;;;;;;;;;5069704;28;19965;-78
2022/08/14 04:13:45;;;;;;;;;;;;;;;;;;5074872;28;19913;-79
2022/08/14 04:16:10;;;;;;;;;;;;;;;;;;5058733;28;19912;-78
2022/08/14 04:18:35;;;;;;;;;;;;;;;;;;5054667;28;19920;-78
2022/08/14 04:21:01;;;;;;;;;;;;;;;;;;5050667;28;19978;-77
2022/08/14 04:23:26;;;;;;;;;;;;;;;;;;5080066;28;20314;-78
2022/08/14 04:25:52;;;;;;;;;;;;;;;;;;5045647;28;19938;-78
2022/08/14 04:28:18;;;;;;;;;;;;;;;;;;5083162;28;19912;-77
2022/08/14 04:30:43;;;;;;;;;;;;;;;;;;5052577;28;19909;-78
2022/08/14 04:33:08;;;;;;;;;;;;;;;;;;5061698;28;19962;-78
2022/08/14 04:35:33;;;;;;;;;;;;;;;;;;5071570;28;19957;-78
2022/08/14 04:43:36;;;;;;;;;;;;;;;;;;5070781;28;20290;-79
2022/08/14 04:46:01;;;;;;;;;;;;;;;;;;5071090;28;19912;-79
2022/08/14 04:48:27;;;;;;;;;;;;;;;;;;5054069;28;19974;-79
2022/08/14 04:50:52;;;;;;;;;;;;;;;;;;5070305;28;19919;-78
2022/08/14 04:53:17;;;;;;;;;;;;;;;;;;5068014;28;19919;-78
2022/08/14 04:55:47;;;;;;;;;;;;;;;;;;5065011;28;19913;-78
2022/08/14 04:58:12;;;;;;;;;;;;;;;;;;5069453;28;19977;-78
2022/08/14 05:00:38;;;;;;;;;;;;;;;;;;5075698;28;19924;-79
2022/08/14 05:03:04;;;;;;;;;;;;;;;;;;5049401;28;19916;-80
2022/08/14 05:05:30;;;;;;;;;;;;;;;;;;5052680;28;19960;-77
2022/08/14 05:07:55;;;;;;;;;;;;;;;;;;5058491;28;19956;-80
2022/08/14 05:10:22;;;;;;;;;;;;;;;;;;5067907;28;21247;-78
2022/08/14 05:12:47;;;;;;;;;;;;;;;;;;5077583;28;19924;-79
2022/08/14 05:15:13;;;;;;;;;;;;;;;;;;5061022;28;19912;-79
2022/08/14 05:17:38;;;;;;;;;;;;;;;;;;5053765;28;19913;-78
2022/08/14 05:20:03;;;;;;;;;;;;;;;;;;5041185;28;19916;-78
2022/08/14 05:22:29;;;;;;;;;;;;;;;;;;5076842;28;19918;-78
2022/08/14 05:24:54;;;;;;;;;;;;;;;;;;5056394;28;19917;-79
2022/08/14 05:27:19;;;;;;;;;;;;;;;;;;5069857;28;19908;-80
2022/08/14 05:29:45;;;;;;;;;;;;;;;;;;5056522;28;19942;-78
2022/08/14 05:32:10;;;;;;;;;;;;;;;;;;5056684;28;19916;-79
2022/08/14 05:34:35;;;;;;;;;;;;;;;;;;5053850;28;20385;-81
2022/08/14 05:37:01;;;;;;;;;;;;;;;;;;5049847;28;19959;-80
2022/08/14 05:39:26;;;;;;;;;;;;;;;;;;5071643;28;19908;-81
2022/08/14 05:41:51;;;;;;;;;;;;;;;;;;5047878;28;19924;-81
2022/08/14 05:44:16;;;;;;;;;;;;;;;;;;5061073;28;20355;-81
2022/08/14 05:46:41;;;;;;;;;;;;;;;;;;5069634;28;20359;-78
2022/08/14 05:49:06;;;;;;;;;;;;;;;;;;5075284;28;19912;-85
2022/08/14 05:51:31;;;;;;;;;;;;;;;;;;5074096;28;20026;-82
2022/08/14 05:53:56;;;;;;;;;;;;;;;;;;5060245;28;19961;-83
2022/08/14 05:56:22;;;;;;;;;;;;;;;;;;5062814;28;19996;-85
2022/08/14 05:58:47;;;;;;;;;;;;;;;;;;5057023;28;20380;-84
2022/08/14 06:01:12;;;;;;;;;;;;;;;;;;5054452;28;20355;-85
2022/08/14 06:03:37;;;;;;;;;;;;;;;;;;5067851;28;19971;-84
2022/08/14 06:06:02;;;;;;;;;;;;;;;;;;5054755;28;19967;-83
2022/08/14 06:08:27;;;;;;;;;;;;;;;;;;5063532;28;19919;-84
2022/08/14 06:10:53;;;;;;;;;;;;;;;;;;5042522;28;19924;-86
2022/08/14 06:13:18;;;;;;;;;;;;;;;;;;5065984;28;20385;-84
2022/08/14 06:15:43;;;;;;;;;;;;;;;;;;5069789;28;19913;-84
2022/08/14 06:18:08;;;;;;;;;;;;;;;;;;5064793;28;19913;-85
2022/08/14 06:20:33;;;;;;;;;;;;;;;;;;5063230;28;20811;-84
2022/08/14 06:22:58;;;;;;;;;;;;;;;;;;5049207;28;19912;-85
2022/08/14 06:25:23;;;;;;;;;;;;;;;;;;5048326;28;19922;-84
2022/08/14 06:27:48;;;;;;;;;;;;;;;;;;5067335;28;20072;-86
2022/08/14 06:30:14;;;;;;;;;;;;;;;;;;5067901;28;20015;-84
2022/08/14 06:32:39;;;;;;;;;;;;;;;;;;5049478;28;20319;-85
2022/08/14 06:35:05;;;;;;;;;;;;;;;;;;5049281;28;19920;-84
2022/08/14 06:37:30;;;;;;;;;;;;;;;;;;5044894;28;19923;-84
2022/08/14 06:39:55;;;;;;;;;;;;;;;;;;5054309;28;20255;-84
2022/08/14 06:42:20;;;;;;;;;;;;;;;;;;5068431;28;19921;-85
2022/08/14 06:44:45;;;;;;;;;;;;;;;;;;5063902;28;19913;-85
2022/08/14 06:47:14;;;;;;;;;;;;;;;;;;5042854;28;19955;-83
2022/08/14 06:49:42;;;;;;;;;;;;;;;;;;5059491;28;19966;-84
2022/08/14 06:52:07;;;;;;;;;;;;;;;;;;5047958;28;19923;-83
2022/08/14 06:54:32;;;;;;;;;;;;;;;;;;5056432;28;19912;-83
2022/08/14 06:56:57;;;;;;;;;;;;;;;;;;5064452;28;21246;-84
2022/08/14 06:59:23;;;;;;;;;;;;;;;;;;5051238;28;19939;-85
2022/08/14 07:07:16;;;;;;;;;;;;;;;;;;5061483;28;19923;-84
2022/08/14 07:09:41;;;;;;;;;;;;;;;;;;5046890;28;19916;-82
2022/08/14 07:12:07;;;;;;;;;;;;;;;;;;5068509;28;19963;-83
2022/08/14 07:14:32;;;;;;;;;;;;;;;;;;5044442;28;19966;-82
2022/08/14 07:16:58;;;;;;;;;;;;;;;;;;5065228;28;19964;-84
2022/08/14 07:19:23;;;;;;;;;;;;;;;;;;5065562;28;19916;-83
2022/08/14 07:21:51;;;;;;;;;;;;;;;;;;5042293;28;19920;-85
2022/08/14 07:24:17;;;;;;;;;;;;;;;;;;5066746;28;20418;-82
2022/08/14 07:26:42;;;;;;;;;;;;;;;;;;5046659;28;19991;-83
2022/08/14 07:29:07;;;;;;;;;;;;;;;;;;5055656;28;20355;-81
2022/08/14 07:31:32;;;;;;;;;;;;;;;;;;5060323;28;20011;-82
2022/08/14 07:33:57;;;;;;;;;;;;;;;;;;5039150;28;19917;-83
2022/08/14 07:36:22;;;;;;;;;;;;;;;;;;5063949;28;19912;-83
2022/08/14 07:38:48;;;;;;;;;;;;;;;;;;5067837;28;19913;-82
2022/08/14 07:41:13;;;;;;;;;;;;;;;;;;5063262;28;20313;-82
2022/08/14 07:43:38;;;;;;;;;;;;;;;;;;5059116;28;19916;-82
2022/08/14 07:46:03;;;;;;;;;;;;;;;;;;5051429;28;20611;-82
2022/08/14 07:48:28;;;;;;;;;;;;;;;;;;5033978;28;19998;-83
2022/08/14 07:50:54;;;;;;;;;;;;;;;;;;5040861;28;19944;-83
2022/08/14 07:53:20;;;;;;;;;;;;;;;;;;5043387;28;20020;-83
2022/08/14 07:55:48;;;;;;;;;;;;;;;;;;5059124;28;19921;-83
2022/08/14 07:58:13;;;;;;;;;;;;;;;;;;5066152;28;19913;-82
2022/08/14 08:00:39;;;;;;;;;;;;;;;;;;5047357;28;19921;-82
2022/08/14 08:03:04;;;;;;;;;;;;;;;;;;5046478;28;19916;-83
2022/08/14 08:05:29;;;;;;;;;;;;;;;;;;5058976;28;19924;-83
2022/08/14 08:07:54;;;;;;;;;;;;;;;;;;5068372;28;19912;-83
2022/08/14 08:10:31;;;;;;;;;;;;;;;;;;5053529;28;19913;-82
2022/08/14 08:12:58;;;;;;;;;;;;;;;;;;5063762;28;19924;-83
2022/08/14 08:15:31;;;;;;;;;;;;;;;;;;5063458;28;20051;-83
2022/08/14 08:17:56;;;;;;;;;;;;;;;;;;5056777;28;19912;-87
2022/08/14 08:20:22;;;;;;;;;;;;;;;;;;5066944;28;19920;-85
2022/08/14 08:23:07;;;;;;;;;;;;;;;;;;5046551;28;19987;-87
2022/08/14 08:25:32;;;;;;;;;;;;;;;;;;5056326;28;19913;-87
2022/08/14 08:27:57;;;;;;;;;;;;;;;;;;5060376;28;19916;-86
2022/08/14 08:30:26;;;;;;;;;;;;;;;;;;5048870;28;19920;-87
2022/08/14 08:32:51;;;;;;;;;;;;;;;;;;5061322;28;20367;-86
2022/08/14 08:35:17;;;;;;;;;;;;;;;;;;5062607;28;19913;-87
2022/08/14 08:37:52;;;;;;;;;;;;;;;;;;5055166;28;20373;-89
2022/08/14 08:40:17;;;;;;;;;;;;;;;;;;5073531;28;19939;-86
2022/08/14 08:42:45;;;;;;;;;;;;;;;;;;5065263;28;19905;-85
2022/08/14 08:45:22;;;;;;;;;;;;;;;;;;5071038;28;19964;-85
2022/08/14 08:47:47;;;;;;;;;;;;;;;;;;5052886;28;19913;-86
2022/08/14 08:50:13;;;;;;;;;;;;;;;;;;5057177;28;19923;-84
2022/08/14 08:52:41;;;;;;;;;;;;;;;;;;5040729;28;19920;-86
2022/08/14 08:55:06;;;;;;;;;;;;;;;;;;5052240;28;19913;-88
2022/08/14 08:57:34;;;;;;;;;;;;;;;;;;5056117;28;20244;-87
2022/08/14 09:00:00;;;;;;;;;;;;;;;;;;5059989;28;19912;-88
2022/08/14 09:02:32;;;;;;;;;;;;;;;;;;5041442;28;19947;-87
2022/08/14 09:04:57;;;;;;;;;;;;;;;;;;5035282;28;19979;-90
2022/08/14 09:07:25;;;;;;;;;;;;;;;;;;5046497;28;19913;-86
2022/08/14 09:09:50;;;;;;;;;;;;;;;;;;5033885;28;19912;-84
2022/08/14 09:12:20;;;;;;;;;;;;;;;;;;5043707;28;19916;-85
2022/08/14 09:17:32;;;;;;;;;;;;;;;;;;5022801;22;19933;-65
2022/08/14 09:19:58;;;;;;;;;;;;;;;;;;4997150;28;19936;-65
2022/08/14 09:22:23;;;;;;;;;;;;;;;;;;5008594;28;19918;-64
2022/08/14 09:24:48;;;;;;;;;;;;;;;;;;5013094;28;19918;-64
2022/08/14 09:27:13;;;;;;;;;;;;;;;;;;5021434;28;19909;-64
2022/08/14 09:29:40;;;;;;;;;;;;;;;;;;5011364;28;20298;-64
2022/08/14 09:32:05;;;;;;;;;;;;;;;;;;5016111;28;19918;-64
2022/08/14 09:34:31;;;;;;;;;;;;;;;;;;5014522;28;19920;-64
2022/08/14 09:36:56;;;;;;;;;;;;;;;;;;5014205;28;20372;-64
2022/08/14 09:39:21;;;;;;;;;;;;;;;;;;5015799;28;20362;-66
2022/08/14 09:41:48;;;;;;;;;;;;;;;;;;4993109;28;20031;-65
2022/08/14 09:44:13;;;;;;;;;;;;;;;;;;5017735;28;19909;-66
2022/08/14 09:46:39;;;;;;;;;;;;;;;;;;5005148;28;19925;-63
2022/08/14 09:49:04;;;;;;;;;;;;;;;;;;5014869;28;19913;-64
2022/08/14 09:51:29;;;;;;;;;;;;;;;;;;5010316;28;20012;-64
2022/08/14 09:53:54;;;;;;;;;;;;;;;;;;5016651;28;19922;-65
2022/08/14 09:56:19;;;;;;;;;;;;;;;;;;5008337;28;19921;-64
2022/08/14 09:58:45;;;;;;;;;;;;;;;;;;5022502;28;19913;-65
2022/08/14 10:01:11;;;;;;;;;;;;;;;;;;5016381;28;19924;-64
2022/08/14 10:03:36;;;;;;;;;;;;;;;;;;5016204;28;19917;-65
2022/08/14 10:06:01;;;;;;;;;;;;;;;;;;5018400;28;20422;-65
2022/08/14 10:08:26;;;;;;;;;;;;;;;;;;5019651;28;19914;-65
2022/08/14 10:10:52;;;;;;;;;;;;;;;;;;5017760;28;19983;-65
2022/08/14 10:13:17;;;;;;;;;;;;;;;;;;5020921;28;19992;-64
2022/08/14 10:15:42;;;;;;;;;;;;;;;;;;5011721;28;19914;-64
2022/08/14 10:18:08;;;;;;;;;;;;;;;;;;5019182;28;19968;-64
2022/08/14 10:20:33;;;;;;;;;;;;;;;;;;5017127;28;19917;-64
2022/08/14 10:22:58;;;;;;;;;;;;;;;;;;5011209;28;19945;-65
2022/08/14 10:25:27;;;;;;;;;;;;;;;;;;5014441;28;20020;-66
2022/08/14 10:27:52;;;;;;;;;;;;;;;;;;5019049;28;19917;-65
2022/08/14 10:30:19;;;;;;;;;;;;;;;;;;5019049;28;19921;-65
2022/08/14 10:32:44;;;;;;;;;;;;;;;;;;5017943;28;20052;-64
2022/08/14 10:35:09;;;;;;;;;;;;;;;;;;5023140;28;20007;-65
2022/08/14 10:37:37;;;;;;;;;;;;;;;;;;5018425;28;19913;-65
2022/08/14 10:40:02;;;;;;;;;;;;;;;;;;4996920;28;19921;-65
2022/08/14 10:42:27;;;;;;;;;;;;;;;;;;5022158;28;19986;-65
2022/08/14 10:44:53;;;;;;;;;;;;;;;;;;5017278;28;20038;-65
2022/08/14 10:47:18;;;;;;;;;;;;;;;;;;5025488;28;20459;-65
2022/08/14 10:49:48;;;;;;;;;;;;;;;;;;4993876;28;19929;-64
2022/08/14 10:52:13;;;;;;;;;;;;;;;;;;4990506;28;19913;-65
2022/08/14 10:54:39;;;;;;;;;;;;;;;;;;5006528;28;20482;-65
2022/08/14 10:57:04;;;;;;;;;;;;;;;;;;5005082;28;19913;-64
2022/08/14 10:59:34;;;;;;;;;;;;;;;;;;5011932;28;19921;-66
2022/08/14 11:01:59;;;;;;;;;;;;;;;;;;5006000;28;19925;-65
2022/08/14 11:04:27;;;;;;;;;;;;;;;;;;5009803;28;19917;-65
2022/08/14 11:06:52;;;;;;;;;;;;;;;;;;4993375;28;19913;-63
2022/08/14 11:09:17;;;;;;;;;;;;;;;;;;5012718;28;19920;-64
2022/08/14 11:11:42;;;;;;;;;;;;;;;;;;4997755;28;19945;-64
2022/08/14 11:14:08;;;;;;;;;;;;;;;;;;5011121;28;19946;-65
2022/08/14 11:16:34;;;;;;;;;;;;;;;;;;5010663;28;19917;-65
2022/08/14 11:19:00;;;;;;;;;;;;;;;;;;5009885;28;19926;-65
2022/08/14 11:21:25;;;;;;;;;;;;;;;;;;5006837;28;19931;-66
2022/08/14 11:23:51;;;;;;;;;;;;;;;;;;4993285;28;19992;-67
2022/08/14 11:26:19;;;;;;;;;;;;;;;;;;5006988;28;19921;-67
2022/08/14 11:28:44;;;;;;;;;;;;;;;;;;5014198;28;19914;-65
2022/08/14 11:31:09;;;;;;;;;;;;;;;;;;5013049;28;19924;-67
2022/08/14 11:33:36;;;;;;;;;;;;;;;;;;5008091;28;19977;-65
2022/08/14 11:36:01;;;;;;;;;;;;;;;;;;5016838;28;19913;-64
2022/08/14 11:38:27;;;;;;;;;;;;;;;;;;5015912;28;19967;-66
2022/08/14 11:40:53;;;;;;;;;;;;;;;;;;4990466;28;19918;-67
2022/08/14 11:43:18;;;;;;;;;;;;;;;;;;5001375;28;19925;-67
2022/08/14 11:45:43;;;;;;;;;;;;;;;;;;4990489;28;19922;-66
2022/08/14 11:48:09;;;;;;;;;;;;;;;;;;4989377;28;19937;-66
2022/08/14 11:50:34;;;;;;;;;;;;;;;;;;4992201;28;19922;-67
2022/08/14 11:53:01;;;;;;;;;;;;;;;;;;4990611;28;20362;-67
2022/08/14 11:55:26;;;;;;;;;;;;;;;;;;4993782;28;19983;-67
2022/08/14 11:57:51;;;;;;;;;;;;;;;;;;5008517;28;19948;-68
2022/08/14 12:00:16;;;;;;;;;;;;;;;;;;5010356;28;20007;-67
2022/08/14 12:02:41;;;;;;;;;;;;;;;;;;5003305;28;19976;-67
2022/08/14 12:05:06;;;;;;;;;;;;;;;;;;5012191;28;20332;-67
2022/08/14 12:07:32;;;;;;;;;;;;;;;;;;4998390;28;19913;-67
2022/08/14 12:09:57;;;;;;;;;;;;;;;;;;4995133;28;20400;-67
2022/08/14 12:12:22;;;;;;;;;;;;;;;;;;5013954;28;19964;-67
2022/08/14 12:14:47;;;;;;;;;;;;;;;;;;5013233;28;20289;-67
2022/08/14 12:17:13;;;;;;;;;;;;;;;;;;5013373;28;20412;-68
2022/08/14 12:19:38;;;;;;;;;;;;;;;;;;4994324;28;19914;-67
2022/08/14 12:22:04;;;;;;;;;;;;;;;;;;5008734;28;19968;-68
2022/08/14 12:24:29;;;;;;;;;;;;;;;;;;4995772;28;19920;-68
2022/08/14 12:26:54;;;;;;;;;;;;;;;;;;5013675;28;19909;-67
2022/08/14 12:29:19;;;;;;;;;;;;;;;;;;5013253;28;20266;-68
2022/08/14 12:31:45;;;;;;;;;;;;;;;;;;5021221;28;19913;-67
2022/08/14 12:34:10;;;;;;;;;;;;;;;;;;5012932;28;19914;-68
2022/08/14 12:36:36;;;;;;;;;;;;;;;;;;5012997;28;20325;-67
2022/08/14 12:39:03;;;;;;;;;;;;;;;;;;4994037;28;20297;-67
2022/08/14 12:41:29;;;;;;;;;;;;;;;;;;4993926;28;20297;-67
2022/08/14 12:43:55;;;;;;;;;;;;;;;;;;5013595;28;19916;-67
2022/08/14 12:46:21;;;;;;;;;;;;;;;;;;5014488;28;19964;-67
2022/08/14 12:48:46;;;;;;;;;;;;;;;;;;5013083;28;19999;-67
2022/08/14 12:51:12;;;;;;;;;;;;;;;;;;4996493;28;19921;-66
2022/08/14 12:53:38;;;;;;;;;;;;;;;;;;5014349;28;20020;-67
2022/08/14 12:56:06;;;;;;;;;;;;;;;;;;5011418;28;20363;-67
2022/08/14 12:58:31;;;;;;;;;;;;;;;;;;5011839;28;19909;-67
2022/08/14 13:00:56;;;;;;;;;;;;;;;;;;5009883;28;19917;-67
2022/08/14 13:03:22;;;;;;;;;;;;;;;;;;5012768;28;19909;-67
2022/08/14 13:05:47;;;;;;;;;;;;;;;;;;5013183;28;19909;-67
2022/08/14 13:08:12;;;;;;;;;;;;;;;;;;5003864;28;20420;-68
2022/08/14 13:10:37;;;;;;;;;;;;;;;;;;4998000;28;19963;-68
2022/08/14 13:13:02;;;;;;;;;;;;;;;;;;5008853;28;19921;-68
2022/08/14 13:15:28;;;;;;;;;;;;;;;;;;4994542;28;19920;-67
2022/08/14 13:17:53;;;;;;;;;;;;;;;;;;5012104;28;19943;-67
2022/08/14 13:20:18;;;;;;;;;;;;;;;;;;5009412;28;22627;-68
2022/08/14 13:22:44;;;;;;;;;;;;;;;;;;5001143;28;20029;-68
2022/08/14 13:25:09;;;;;;;;;;;;;;;;;;4996256;28;19917;-67
2022/08/14 13:27:35;;;;;;;;;;;;;;;;;;4984933;28;20012;-67
2022/08/14 13:30:00;;;;;;;;;;;;;;;;;;5010656;28;19975;-67
2022/08/14 13:32:27;;;;;;;;;;;;;;;;;;4987034;28;19918;-68
2022/08/14 13:34:52;;;;;;;;;;;;;;;;;;5011530;28;20373;-68
2022/08/14 13:37:17;;;;;;;;;;;;;;;;;;5012312;28;19910;-68
2022/08/14 13:39:43;;;;;;;;;;;;;;;;;;5007084;28;19943;-68
2022/08/14 13:42:10;;;;;;;;;;;;;;;;;;5014661;28;20444;-68
2022/08/14 13:44:35;;;;;;;;;;;;;;;;;;5006375;28;19918;-68
2022/08/14 13:47:05;;;;;;;;;;;;;;;;;;5011482;28;20290;-67
2022/08/14 13:49:30;;;;;;;;;;;;;;;;;;5010743;28;19968;-68
2022/08/14 13:51:57;;;;;;;;;;;;;;;;;;5004847;28;19921;-67
2022/08/14 13:54:23;;;;;;;;;;;;;;;;;;5016562;28;19914;-68
2022/08/14 13:56:48;;;;;;;;;;;;;;;;;;5005360;28;20236;-68
2022/08/14 13:59:13;;;;;;;;;;;;;;;;;;5012761;28;20358;-68
2022/08/14 14:01:44;;;;;;;;;;;;;;;;;;4989953;28;20304;-67
2022/08/14 14:04:10;;;;;;;;;;;;;;;;;;5010040;28;19918;-68
2022/08/14 14:06:35;;;;;;;;;;;;;;;;;;5017698;28;20250;-67
2022/08/14 14:09:00;;;;;;;;;;;;;;;;;;5015421;28;19979;-67
2022/08/14 14:11:25;;;;;;;;;;;;;;;;;;4991796;28;19918;-67
2022/08/14 14:13:50;;;;;;;;;;;;;;;;;;5010832;28;19913;-68
2022/08/14 14:16:19;;;;;;;;;;;;;;;;;;4995646;28;19960;-68
2022/08/14 14:18:47;;;;;;;;;;;;;;;;;;5005791;28;19917;-68
2022/08/14 14:21:12;;;;;;;;;;;;;;;;;;5009663;28;19925;-68
2022/08/14 14:23:38;;;;;;;;;;;;;;;;;;5007854;28;19935;-68
2022/08/14 14:26:03;;;;;;;;;;;;;;;;;;5016447;28;19979;-68
2022/08/14 14:28:30;;;;;;;;;;;;;;;;;;4988887;28;19996;-68
2022/08/14 14:30:55;;;;;;;;;;;;;;;;;;5006192;28;19952;-69
2022/08/14 14:33:20;;;;;;;;;;;;;;;;;;5009964;28;20404;-68
2022/08/14 14:35:45;;;;;;;;;;;;;;;;;;5014490;28;20293;-68
2022/08/14 14:38:10;;;;;;;;;;;;;;;;;;5013571;28;19913;-69
2022/08/14 14:40:37;;;;;;;;;;;;;;;;;;5011479;28;20424;-68
2022/08/14 14:43:02;;;;;;;;;;;;;;;;;;5011523;28;19925;-69
2022/08/14 14:45:28;;;;;;;;;;;;;;;;;;5014421;28;19914;-69
2022/08/14 14:47:53;;;;;;;;;;;;;;;;;;5007988;28;20370;-69
2022/08/14 14:50:18;;;;;;;;;;;;;;;;;;5011506;28;21985;-69
2022/08/14 14:52:44;;;;;;;;;;;;;;;;;;5000096;28;19948;-69
2022/08/14 14:55:11;;;;;;;;;;;;;;;;;;5007154;28;19985;-69
2022/08/14 14:57:36;;;;;;;;;;;;;;;;;;5013227;28;19964;-69
2022/08/14 15:00:01;;;;;;;;;;;;;;;;;;5015013;28;20019;-69
2022/08/14 15:02:27;;;;;;;;;;;;;;;;;;5008983;28;20040;-68
2022/08/14 15:04:52;;;;;;;;;;;;;;;;;;4997478;28;20365;-69
2022/08/14 15:07:18;;;;;;;;;;;;;;;;;;5011689;28;19940;-69
2022/08/14 15:09:44;;;;;;;;;;;;;;;;;;5002416;28;20019;-69
2022/08/14 15:12:09;;;;;;;;;;;;;;;;;;5010476;28;20013;-69
2022/08/14 15:14:34;;;;;;;;;;;;;;;;;;5004206;28;19918;-69
2022/08/14 15:17:00;;;;;;;;;;;;;;;;;;4993440;28;20393;-69
2022/08/14 15:19:25;;;;;;;;;;;;;;;;;;5005136;28;19918;-70
2022/08/14 15:21:50;;;;;;;;;;;;;;;;;;5009310;28;20440;-69
2022/08/14 15:24:16;;;;;;;;;;;;;;;;;;5014346;28;19921;-69
2022/08/14 15:26:43;;;;;;;;;;;;;;;;;;5010603;28;19936;-69
2022/08/14 15:29:13;;;;;;;;;;;;;;;;;;5013485;28;19914;-70
2022/08/14 15:31:38;;;;;;;;;;;;;;;;;;5013322;28;19925;-69
2022/08/14 15:34:17;;;;;;;;;;;;;;;;;;5012467;28;19914;-69
2022/08/14 15:36:44;;;;;;;;;;;;;;;;;;5012374;28;19932;-69
2022/08/14 15:39:09;;;;;;;;;;;;;;;;;;5007984;28;19914;-69
2022/08/14 15:41:34;;;;;;;;;;;;;;;;;;5012275;28;20508;-69
2022/08/14 15:43:59;;;;;;;;;;;;;;;;;;4992166;28;19916;-69
2022/08/14 15:46:25;;;;;;;;;;;;;;;;;;5011718;28;20007;-69
2022/08/14 15:48:50;;;;;;;;;;;;;;;;;;5014022;28;20286;-69
2022/08/14 15:51:15;;;;;;;;;;;;;;;;;;5008515;28;19921;-69
2022/08/14 15:53:41;;;;;;;;;;;;;;;;;;5009100;28;20236;-69
2022/08/14 15:56:06;;;;;;;;;;;;;;;;;;5014003;28;19987;-69
2022/08/14 15:58:31;;;;;;;;;;;;;;;;;;5010646;28;19940;-69
2022/08/14 16:03:40;;;;;;;;;;;;;;;;;;5011437;28;19935;-69
2022/08/14 16:06:05;;;;;;;;;;;;;;;;;;5007702;28;19913;-68
2022/08/14 16:08:30;;;;;;;;;;;;;;;;;;5011838;28;20515;-68
2022/08/14 16:10:55;;;;;;;;;;;;;;;;;;4994335;28;19918;-69
2022/08/14 16:13:20;;;;;;;;;;;;;;;;;;5009246;28;19979;-69
2022/08/14 16:15:45;;;;;;;;;;;;;;;;;;5007813;28;19918;-69
2022/08/14 16:18:11;;;;;;;;;;;;;;;;;;4997692;28;20190;-69
2022/08/14 16:20:36;;;;;;;;;;;;;;;;;;4987366;28;19965;-69
2022/08/14 16:23:03;;;;;;;;;;;;;;;;;;5001041;28;19967;-68
2022/08/14 16:25:28;;;;;;;;;;;;;;;;;;5010106;28;19976;-69
2022/08/14 16:27:54;;;;;;;;;;;;;;;;;;4993620;28;19917;-69
2022/08/14 16:30:19;;;;;;;;;;;;;;;;;;5008541;28;19917;-69
2022/08/14 16:32:47;;;;;;;;;;;;;;;;;;5008605;28;19920;-69
2022/08/14 16:35:12;;;;;;;;;;;;;;;;;;5005686;28;19952;-69
2022/08/14 16:37:40;;;;;;;;;;;;;;;;;;5008648;28;19913;-69
2022/08/14 16:40:05;;;;;;;;;;;;;;;;;;5004516;28;19918;-69
2022/08/14 16:42:31;;;;;;;;;;;;;;;;;;5010286;28;19971;-69
2022/08/14 16:44:57;;;;;;;;;;;;;;;;;;5002620;28;19985;-69
2022/08/14 16:47:24;;;;;;;;;;;;;;;;;;4998505;28;19922;-69
2022/08/14 16:49:51;;;;;;;;;;;;;;;;;;5006642;28;19913;-69
2022/08/14 16:52:17;;;;;;;;;;;;;;;;;;4999807;28;19929;-69
2022/08/14 16:54:46;;;;;;;;;;;;;;;;;;5009365;28;19960;-69